Time;durP1;ratioP1;P1;durP2;ratioP2;P2;SDS_P1;SDS_P2;PMS_P1;PMS_P2;Temp;Humidity;BMP_temperature;BMP_pressure;BME280_temperature;BME280_humidity;BME280_pressure;Samples;Min_cycle;Max_cycle;Signal;HPM_P1;HPM_P2
2021/07/13 00:00:36;;;;;;;9.05;8.15;;;;;;;23.20;57.80;101108.28;5014180;28;20544;-90
2021/07/13 00:03:04;;;;;;;12.23;8.27;;;;;;;23.20;58.20;101112.66;5017557;28;20046;-90
2021/07/13 00:05:30;;;;;;;9.05;8.15;;;;;;;23.20;57.89;101117.91;5016405;28;20368;-90
2021/07/13 00:07:56;;;;;;;9.73;8.82;;;;;;;23.19;57.82;101110.94;5015216;28;20468;-89
2021/07/13 00:10:24;;;;;;;9.27;8.38;;;;;;;23.18;57.94;101110.06;5015311;28;20125;-89
2021/07/13 00:12:51;;;;;;;9.95;9.00;;;;;;;23.18;58.12;101104.81;5010569;28;20133;-90
2021/07/13 00:15:26;;;;;;;9.98;8.93;;;;;;;23.17;58.23;101105.75;4976655;28;20405;-90
2021/07/13 00:17:53;;;;;;;9.20;8.35;;;;;;;23.19;58.10;101103.06;5010409;28;20022;-91
2021/07/13 00:20:19;;;;;;;9.60;8.48;;;;;;;23.18;57.94;101107.44;4993940;28;20464;-91
2021/07/13 00:22:45;;;;;;;9.00;8.07;;;;;;;23.18;58.44;101109.22;4993896;28;20030;-91
2021/07/13 00:25:12;;;;;;;9.00;8.18;;;;;;;23.17;58.29;101110.16;4993829;28;20026;-90
2021/07/13 00:27:39;;;;;;;9.65;8.68;;;;;;;23.18;58.13;101115.31;4995120;28;20484;-89
2021/07/13 00:30:06;;;;;;;9.77;8.77;;;;;;;23.19;57.97;101113.56;5010208;28;20029;-90
2021/07/13 00:32:31;;;;;;;9.25;8.35;;;;;;;23.17;58.06;101111.00;5010158;28;20121;-91
2021/07/13 00:34:56;;;;;;;9.13;8.32;;;;;;;23.18;58.03;101123.19;4994042;28;20042;-90
2021/07/13 00:37:22;;;;;;;9.10;8.20;;;;;;;23.18;57.87;101124.97;4993584;28;20030;-90
2021/07/13 00:39:47;;;;;;;10.07;9.07;;;;;;;23.17;58.40;101121.50;4977415;28;20043;-91
2021/07/13 00:42:17;;;;;;;9.77;8.77;;;;;;;23.18;58.03;101119.72;4993768;28;20030;-90
2021/07/13 00:44:44;;;;;;;9.43;8.50;;;;;;;23.19;58.30;101118.81;5010014;28;20022;-91
2021/07/13 00:47:10;;;;;;;10.13;9.10;;;;;;;23.17;58.40;101116.25;4994021;28;20077;-90
2021/07/13 00:49:36;;;;;;;10.80;9.80;;;;;;;23.15;58.34;101111.94;5009990;28;20491;-90
2021/07/13 00:52:03;;;;;;;10.27;9.23;;;;;;;23.17;58.07;101102.25;4993631;28;20113;-90
2021/07/13 00:54:29;;;;;;;10.70;9.65;;;;;;;23.16;58.13;101105.78;4993635;28;20077;-90
2021/07/13 00:56:56;;;;;;;10.23;9.32;;;;;;;23.18;58.05;101114.47;4977443;28;20022;-90
2021/07/13 00:59:22;;;;;;;10.73;9.73;;;;;;;23.16;58.27;101116.28;4993514;28;20108;-89
2021/07/13 01:01:48;;;;;;;12.27;11.07;;;;;;;23.16;58.11;101113.66;5009708;28;20053;-90
2021/07/13 01:04:15;;;;;;;13.32;12.00;;;;;;;23.15;58.60;101120.69;4977323;28;20030;-90
2021/07/13 01:06:46;;;;;;;11.35;10.27;;;;;;;23.16;58.48;101121.53;4994628;28;20031;-89
2021/07/13 01:09:21;;;;;;;11.85;10.43;;;;;;;23.15;58.39;101114.56;5012244;28;20391;-91
2021/07/13 01:11:52;;;;;;;12.02;10.40;;;;;;;23.16;58.68;101109.25;5009804;28;20457;-90
2021/07/13 01:14:24;;;;;;;11.95;10.80;;;;;;;23.16;58.30;101114.50;4993339;28;20117;-90
2021/07/13 01:17:12;;;;;;;11.70;10.60;;;;;;;23.16;58.38;101125.00;5009842;28;20086;-90
2021/07/13 01:20:06;;;;;;;12.30;11.10;;;;;;;23.16;58.33;101126.78;5009513;28;20057;-90
2021/07/13 01:22:38;;;;;;;11.43;10.32;;;;;;;23.16;58.49;101134.66;5009571;28;20496;-91
2021/07/13 01:25:14;;;;;;;13.20;11.80;;;;;;;23.15;58.71;101125.06;5009534;28;20027;-89
2021/07/13 01:27:48;;;;;;;13.05;11.80;;;;;;;23.15;58.61;101135.56;4996311;28;20286;-91
2021/07/13 01:30:25;;;;;;;12.00;10.80;;;;;;;23.16;58.61;101140.75;5013440;28;20113;-91
2021/07/13 01:33:06;;;;;;;11.98;10.85;;;;;;;23.14;58.37;101139.94;4997286;28;20022;-92
2021/07/13 01:35:50;;;;;;;12.85;11.60;;;;;;;23.15;58.23;101141.69;4997089;28;20109;-91
2021/07/13 01:38:17;;;;;;;13.18;11.95;;;;;;;23.13;58.50;101140.00;5013606;28;20027;-91
2021/07/13 01:40:44;;;;;;;16.60;14.90;;;;;;;23.11;58.64;101142.66;4997162;28;20034;-91
2021/07/13 01:43:11;;;;;;;15.80;14.20;;;;;;;23.12;58.69;101141.75;4996926;28;20116;-91
2021/07/13 01:45:39;;;;;;;15.80;14.18;;;;;;;23.12;58.43;101130.41;4964657;28;20039;-92
2021/07/13 01:48:08;;;;;;;17.08;13.38;;;;;;;23.12;58.54;101112.88;4981186;28;20042;-91
2021/07/13 01:50:34;;;;;;;15.98;13.40;;;;;;;23.14;58.38;101123.34;4981423;28;20097;-90
2021/07/13 01:53:01;;;;;;;14.52;13.02;;;;;;;23.12;58.36;101119.88;4996693;28;20034;-93
2021/07/13 01:55:31;;;;;;;13.75;12.45;;;;;;;23.12;58.57;101131.25;4980761;28;20034;-90
2021/07/13 01:57:57;;;;;;;13.95;12.55;;;;;;;23.14;58.50;101120.72;4996722;28;20026;-90
2021/07/13 02:00:22;;;;;;;14.23;12.82;;;;;;;23.12;58.56;101123.38;4996944;28;20491;-91
2021/07/13 02:02:48;;;;;;;14.27;12.95;;;;;;;23.11;58.49;101126.06;4980353;28;20026;-90
2021/07/13 02:05:18;;;;;;;14.82;13.18;;;;;;;23.12;58.63;101127.78;4964503;28;20031;-91
2021/07/13 02:07:49;;;;;;;13.38;12.07;;;;;;;23.14;58.46;101124.19;4996535;28;20113;-91
2021/07/13 02:10:18;;;;;;;12.45;11.25;;;;;;;23.14;58.50;101121.56;4980905;28;20034;-91
2021/07/13 02:12:44;;;;;;;12.80;11.50;;;;;;;23.13;58.76;101119.00;4980199;28;20480;-90
2021/07/13 02:15:10;;;;;;;12.98;11.68;;;;;;;23.15;58.73;101122.44;4997519;28;20161;-90
2021/07/13 02:17:35;;;;;;;12.73;11.43;;;;;;;23.13;58.76;101116.38;4980244;28;20121;-90
2021/07/13 02:20:05;;;;;;;12.43;11.23;;;;;;;23.12;58.46;101118.13;4997019;28;20084;-91
2021/07/13 02:22:31;;;;;;;12.98;11.68;;;;;;;23.13;58.53;101121.63;4996092;28;20022;-90
2021/07/13 02:24:57;;;;;;;14.32;12.48;;;;;;;23.14;58.65;101120.72;4980036;28;20038;-91
2021/07/13 02:27:27;;;;;;;13.65;12.32;;;;;;;23.15;58.44;101125.06;5012670;28;20022;-90
2021/07/13 02:29:56;;;;;;;14.00;12.52;;;;;;;23.13;58.26;101119.00;4998550;28;20516;-92
2021/07/13 02:32:32;;;;;;;13.50;12.20;;;;;;;23.10;58.65;101119.06;4997893;28;20034;-92
2021/07/13 02:34:59;;;;;;;14.07;12.52;;;;;;;23.12;58.88;101122.53;4997783;28;20120;-90
2021/07/13 02:37:25;;;;;;;13.38;12.05;;;;;;;23.09;58.69;101115.59;4996093;28;20018;-90
2021/07/13 02:39:52;;;;;;;12.70;11.40;;;;;;;23.10;58.52;101112.06;4995833;28;20030;-90
2021/07/13 02:42:18;;;;;;;13.82;12.40;;;;;;;23.09;58.40;101112.13;4995781;28;20038;-91
2021/07/13 02:44:45;;;;;;;14.10;12.60;;;;;;;23.11;58.73;101111.16;4979605;28;20061;-90
2021/07/13 02:47:12;;;;;;;13.15;11.85;;;;;;;23.11;58.44;101112.94;5011892;28;20473;-90
2021/07/13 02:49:45;;;;;;;13.80;12.40;;;;;;;23.11;58.30;101107.69;4963287;28;20398;-91
2021/07/13 02:52:27;;;;;;;13.15;11.75;;;;;;;23.10;58.46;101104.19;4995625;28;20092;-90
2021/07/13 02:54:59;;;;;;;13.82;12.40;;;;;;;23.10;58.31;101100.69;4995540;28;20491;-90
2021/07/13 02:57:28;;;;;;;13.90;12.50;;;;;;;23.08;58.44;101090.25;4996755;28;20038;-91
2021/07/13 02:59:55;;;;;;;14.18;12.68;;;;;;;23.07;58.40;101096.41;4979288;28;20623;-91
2021/07/13 03:02:22;;;;;;;13.85;12.45;;;;;;;23.06;58.40;101092.06;4995487;28;20113;-91
2021/07/13 03:04:50;;;;;;;14.32;12.90;;;;;;;23.05;58.67;101084.22;4995323;28;20096;-91
2021/07/13 03:07:16;;;;;;;14.48;12.93;;;;;;;23.06;58.58;101094.69;4995173;28;20025;-90
2021/07/13 03:09:46;;;;;;;13.52;12.23;;;;;;;23.06;58.49;101092.06;4979368;28;20125;-90
2021/07/13 03:12:12;;;;;;;13.43;11.65;;;;;;;23.09;58.39;101091.13;4963001;28;20455;-91
2021/07/13 03:14:45;;;;;;;13.43;12.02;;;;;;;23.07;58.04;101088.53;4962750;28;20033;-91
2021/07/13 03:17:11;;;;;;;;;;;;;;;23.07;58.15;101088.53;4995596;28;20505;-90
2021/07/13 03:19:38;;;;;;;12.25;11.13;;;;;;;23.10;58.35;101096.31;4996340;28;20000;-90
2021/07/13 03:22:07;;;;;;;12.93;11.63;;;;;;;23.10;58.08;101090.19;4995020;28;20392;-90
2021/07/13 03:24:36;;;;;;;12.60;11.30;;;;;;;23.09;58.14;101091.13;4979096;28;20510;-90
2021/07/13 03:27:03;;;;;;;12.40;11.20;;;;;;;23.08;57.99;101090.25;5011075;28;20022;-90
2021/07/13 03:29:30;;;;;;;11.95;10.75;;;;;;;23.07;58.05;101099.03;4978827;28;20473;-91
2021/07/13 03:31:57;;;;;;;12.73;11.52;;;;;;;23.06;58.25;101097.31;4978426;28;20026;-90
2021/07/13 03:34:22;;;;;;;14.95;12.57;;;;;;;23.05;58.36;101100.84;5011024;28;20027;-91
2021/07/13 03:36:48;;;;;;;12.18;11.00;;;;;;;23.06;58.03;101093.81;4962761;28;20092;-90
2021/07/13 03:39:15;;;;;;;14.25;12.75;;;;;;;23.05;58.12;101098.22;4994760;28;20037;-90
2021/07/13 03:41:41;;;;;;;13.15;11.85;;;;;;;23.06;58.25;101107.81;4994485;28;20031;-90
2021/07/13 03:44:07;;;;;;;12.80;11.50;;;;;;;23.06;58.13;101104.31;4978543;28;20030;-91
2021/07/13 03:46:37;;;;;;;12.80;11.50;;;;;;;23.08;58.02;101103.38;4978718;28;20042;-90
2021/07/13 03:49:07;;;;;;;12.88;11.57;;;;;;;23.09;58.21;101106.88;4978464;28;20036;-91
2021/07/13 03:51:43;;;;;;;12.70;11.40;;;;;;;23.09;58.16;101101.63;4994428;28;20030;-91
2021/07/13 03:54:11;;;;;;;12.38;11.15;;;;;;;23.07;57.92;101100.78;4994596;28;20472;-92
2021/07/13 03:56:37;;;;;;;11.85;10.48;;;;;;;23.07;58.12;101106.03;5010694;28;20037;-91
2021/07/13 03:59:03;;;;;;;12.27;11.07;;;;;;;23.08;57.94;101102.50;4978697;28;20046;-91
2021/07/13 04:01:29;;;;;;;13.07;11.68;;;;;;;23.08;57.80;101102.50;4994446;28;20036;-91
2021/07/13 04:03:54;;;;;;;11.57;10.32;;;;;;;23.07;57.96;101108.69;4979017;28;20034;-90
2021/07/13 04:06:20;;;;;;;12.45;11.20;;;;;;;23.06;58.09;101109.56;4962733;28;20069;-91
2021/07/13 04:08:45;;;;;;;13.30;11.32;;;;;;;23.06;58.10;101118.31;4978765;28;20045;-88
2021/07/13 04:11:11;;;;;;;11.85;10.50;;;;;;;23.05;57.77;101108.72;4977313;28;20500;-88
2021/07/13 04:13:36;;;;;;;11.68;10.57;;;;;;;23.05;57.72;101111.34;4977530;28;20030;-88
2021/07/13 04:16:02;;;;;;;12.82;11.63;;;;;;;23.04;58.10;101109.63;4977911;28;20022;-88
2021/07/13 04:18:29;;;;;;;12.45;11.15;;;;;;;23.06;58.24;101126.19;4993949;28;20030;-89
2021/07/13 04:21:08;;;;;;;11.95;10.85;;;;;;;23.07;57.74;101120.03;5081176;27;1538894;-87
2021/07/13 04:23:34;;;;;;;10.98;9.88;;;;;;;23.08;58.07;101126.13;5110192;28;20032;-87
2021/07/13 04:26:00;;;;;;;10.93;9.82;;;;;;;23.07;57.75;101122.66;5093329;28;20078;-85
2021/07/13 04:28:26;;;;;;;11.38;10.18;;;;;;;23.07;57.75;101125.28;5111123;28;20023;-85
2021/07/13 04:30:52;;;;;;;8.60;7.80;;;;;;;23.09;57.44;101122.63;5093385;28;20385;-84
2021/07/13 04:33:18;;;;;;;9.07;8.27;;;;;;;23.10;57.50;101132.19;5109751;28;20103;-86
2021/07/13 04:35:44;;;;;;;10.30;8.85;;;;;;;23.09;57.72;101139.22;5076391;28;20564;-85
2021/07/13 04:38:09;;;;;;;9.40;8.45;;;;;;;23.10;57.78;101135.69;5092971;28;20505;-86
2021/07/13 04:40:35;;;;;;;8.48;7.68;;;;;;;23.10;57.87;101137.44;5109921;28;20484;-85
2021/07/13 04:43:00;;;;;;;8.63;7.82;;;;;;;23.10;57.86;101134.81;5092844;28;20462;-84
2021/07/13 04:45:26;;;;;;;7.95;7.25;;;;;;;23.10;58.06;101133.06;5109224;28;20043;-85
2021/07/13 04:47:51;;;;;;;7.78;7.05;;;;;;;23.10;57.83;101134.81;5092759;28;20047;-85
2021/07/13 04:50:16;;;;;;;7.85;7.05;;;;;;;23.10;57.83;101135.69;5092529;28;20031;-84
2021/07/13 04:52:42;;;;;;;8.23;7.43;;;;;;;23.10;57.48;101138.31;5075633;28;20434;-85
2021/07/13 04:55:08;;;;;;;9.55;8.55;;;;;;;23.10;57.46;101138.31;5109475;28;20032;-84
2021/07/13 04:57:33;;;;;;;10.82;9.80;;;;;;;23.07;57.79;101135.78;5109680;28;20050;-91
2021/07/13 04:59:59;;;;;;;15.68;14.10;;;;;;;22.94;57.82;101137.84;5092674;28;20047;-88
2021/07/13 05:02:24;;;;;;;18.17;16.38;;;;;;;22.83;58.34;101137.28;5092412;28;20498;-89
2021/07/13 05:04:52;;;;;;;19.17;17.35;;;;;;;22.73;58.61;101141.03;5092446;28;20032;-89
2021/07/13 05:07:17;;;;;;;20.98;18.88;;;;;;;22.69;58.85;101149.88;5075725;28;20020;-87
2021/07/13 05:09:43;;;;;;;20.75;18.60;;;;;;;22.68;58.41;101143.78;5075579;28;20085;-88
2021/07/13 05:12:08;;;;;;;21.33;18.95;;;;;;;22.65;58.65;101149.13;5075274;28;20051;-82
2021/07/13 05:14:35;;;;;;;21.38;19.17;;;;;;;22.59;58.59;101149.28;5092409;28;20030;-88
2021/07/13 05:17:01;;;;;;;21.48;19.17;;;;;;;22.63;58.95;101145.69;5092331;28;20032;-85
2021/07/13 05:19:26;;;;;;;22.67;19.85;;;;;;;22.68;58.58;101150.81;5091677;28;20066;-85
2021/07/13 05:21:56;;;;;;;23.77;18.35;;;;;;;22.69;58.38;101155.13;5108844;28;20119;-84
2021/07/13 05:24:25;;;;;;;21.48;17.60;;;;;;;22.72;58.56;101155.94;5092828;28;20119;-87
2021/07/13 05:26:52;;;;;;;18.92;16.92;;;;;;;22.73;58.21;101143.66;5092031;28;20024;-87
2021/07/13 05:29:18;;;;;;;22.20;19.23;;;;;;;22.70;58.79;101149.84;5108922;28;20386;-90
2021/07/13 05:31:45;;;;;;;28.60;21.00;;;;;;;22.60;58.95;101145.75;5082868;28;20024;-87
2021/07/13 05:34:10;;;;;;;23.15;20.58;;;;;;;22.62;58.85;101145.72;5095597;28;20024;-89
2021/07/13 05:36:36;;;;;;;23.42;20.92;;;;;;;22.65;58.67;101153.50;5078357;28;20027;-88
2021/07/13 05:39:05;;;;;;;26.38;23.27;;;;;;;22.62;58.83;101157.06;5061542;28;20450;-88
2021/07/13 05:41:30;;;;;;;26.52;23.52;;;;;;;22.55;58.99;101150.25;5095104;28;20030;-89
2021/07/13 05:43:57;;;;;;;26.63;23.20;;;;;;;22.56;58.75;101144.13;5061575;28;20118;-88
2021/07/13 05:46:23;;;;;;;24.77;22.17;;;;;;;22.54;59.48;101151.16;5061929;28;20028;-87
2021/07/13 05:48:48;;;;;;;28.27;25.27;;;;;;;22.54;59.29;101152.03;5095211;28;20020;-87
2021/07/13 05:51:14;;;;;;;24.73;22.17;;;;;;;22.53;58.97;101152.03;5078122;28;20123;-87
2021/07/13 05:53:39;;;;;;;27.67;24.80;;;;;;;22.47;59.38;101150.47;5078007;28;20084;-88
2021/07/13 05:56:05;;;;;;;26.42;23.63;;;;;;;22.45;59.37;101149.63;5061398;28;20037;-90
2021/07/13 05:58:31;;;;;;;24.50;21.88;;;;;;;22.48;59.48;101144.31;5094742;28;20032;-88
2021/07/13 06:00:56;;;;;;;26.95;22.95;;;;;;;22.53;59.32;101157.28;5077914;28;20040;-87
2021/07/13 06:03:21;;;;;;;26.17;23.33;;;;;;;22.56;59.39;101154.59;5077982;28;20028;-87
2021/07/13 06:05:47;;;;;;;26.20;23.40;;;;;;;22.55;59.10;101158.13;5060998;28;20439;-86
2021/07/13 06:08:12;;;;;;;25.58;22.73;;;;;;;22.56;59.25;101157.22;5077928;28;20055;-89
2021/07/13 06:10:37;;;;;;;27.23;24.27;;;;;;;22.52;59.35;101160.84;5077910;28;20024;-89
2021/07/13 06:13:03;;;;;;;25.95;23.13;;;;;;;22.53;59.37;101168.63;5077987;28;20073;-89
2021/07/13 06:15:29;;;;;;;27.30;23.42;;;;;;;22.50;59.53;101170.50;5094659;28;20059;-90
2021/07/13 06:17:57;;;;;;;27.42;24.52;;;;;;;22.50;59.51;101160.84;5095722;28;20573;-89
2021/07/13 06:20:23;;;;;;;27.33;23.55;;;;;;;22.52;59.32;101171.31;5098299;28;20159;-89
2021/07/13 06:22:48;;;;;;;25.95;23.25;;;;;;;22.47;59.63;101173.19;5097820;28;20024;-87
2021/07/13 06:25:14;;;;;;;30.48;25.38;;;;;;;22.50;59.73;101168.72;5080834;28;20024;-88
2021/07/13 06:27:40;;;;;;;26.60;23.65;;;;;;;22.56;59.71;101173.81;5095938;28;20385;-89
2021/07/13 06:30:08;;;;;;;27.00;23.90;;;;;;;22.58;59.54;101176.38;5094857;28;20047;-87
2021/07/13 06:32:34;;;;;;;27.08;24.20;;;;;;;22.63;59.65;101171.06;5094999;28;20089;-86
2021/07/13 06:35:00;;;;;;;25.38;22.67;;;;;;;22.66;59.13;101170.97;5095553;28;20419;-89
2021/07/13 06:37:25;;;;;;;25.98;22.25;;;;;;;22.67;58.87;101170.94;5094655;28;20035;-86
2021/07/13 06:39:51;;;;;;;25.90;22.25;;;;;;;22.69;59.36;101174.38;5079653;28;20024;-87
2021/07/13 06:42:16;;;;;;;27.73;23.65;;;;;;;22.67;59.40;101186.66;5080651;28;20035;-86
2021/07/13 06:44:42;;;;;;;24.73;21.52;;;;;;;22.73;58.72;101183.00;5096324;28;20038;-86
2021/07/13 06:47:08;;;;;;;26.63;23.65;;;;;;;22.69;58.99;101181.38;5061492;28;20058;-87
2021/07/13 06:49:33;;;;;;;26.63;23.92;;;;;;;22.68;59.26;101182.28;5060856;28;20431;-87
2021/07/13 06:51:59;;;;;;;26.85;23.92;;;;;;;22.65;59.33;101183.22;5077321;28;20023;-87
2021/07/13 06:54:27;;;;;;;25.60;22.48;;;;;;;22.76;58.72;101177.69;5093718;28;20028;-85
2021/07/13 06:56:52;;;;;;;22.60;20.20;;;;;;;22.88;58.27;101180.00;5093465;28;20160;-86
2021/07/13 06:59:17;;;;;;;25.52;22.67;;;;;;;22.68;58.87;101177.88;5076420;28;20453;-86
2021/07/13 07:01:43;;;;;;;26.83;23.20;;;;;;;22.49;59.84;101189.75;5076611;28;20024;-86
2021/07/13 07:04:08;;;;;;;32.15;23.98;;;;;;;22.33;60.12;101195.34;5059924;28;20028;-86
2021/07/13 07:06:34;;;;;;;28.00;25.00;;;;;;;22.29;60.50;101192.84;5076388;28;20032;-88
2021/07/13 07:08:59;;;;;;;27.70;23.75;;;;;;;22.31;60.50;101201.53;5077056;28;20485;-87
2021/07/13 07:11:25;;;;;;;29.65;23.88;;;;;;;22.30;60.39;101202.44;5076577;28;20032;-89
2021/07/13 07:13:50;;;;;;;25.58;22.85;;;;;;;22.25;60.39;101196.44;5076422;28;20031;-86
2021/07/13 07:16:16;;;;;;;29.98;23.40;;;;;;;22.26;60.48;101203.41;5076332;28;20027;-86
2021/07/13 07:18:41;;;;;;;25.42;22.40;;;;;;;22.29;60.31;101196.31;5076111;28;20020;-88
2021/07/13 07:21:06;;;;;;;27.83;23.40;;;;;;;22.31;60.46;101198.91;5094056;28;20447;-89
2021/07/13 07:23:32;;;;;;;25.90;22.70;;;;;;;22.23;60.25;101199.06;5076197;28;20486;-87
2021/07/13 07:25:57;;;;;;;25.33;22.50;;;;;;;22.28;60.19;101194.63;5093363;28;20032;-87
2021/07/13 07:28:23;;;;;;;26.17;23.38;;;;;;;22.22;60.31;101194.75;5076047;28;20062;-89
2021/07/13 07:30:49;;;;;;;24.55;21.33;;;;;;;22.35;59.90;101196.19;5076122;28;20051;-86
2021/07/13 07:33:14;;;;;;;27.58;23.00;;;;;;;22.30;59.96;101195.44;5093143;28;20436;-86
2021/07/13 07:35:40;;;;;;;25.95;22.75;;;;;;;22.33;59.95;101202.38;5093648;28;20381;-93
2021/07/13 07:38:06;;;;;;;27.17;23.63;;;;;;;22.24;59.97;101203.44;5077953;28;20389;-93
2021/07/13 07:40:31;;;;;;;27.45;24.40;;;;;;;22.22;60.09;101202.63;5094696;28;20024;-90
2021/07/13 07:42:58;;;;;;;31.08;23.50;;;;;;;22.21;60.42;101202.59;5064680;28;20035;-93
2021/07/13 07:45:24;;;;;;;30.77;23.25;;;;;;;22.19;60.24;101197.41;5093149;28;20028;-90
2021/07/13 07:47:51;;;;;;;26.67;22.92;;;;;;;22.16;60.36;101202.72;5076408;28;20039;-91
2021/07/13 07:50:18;;;;;;;27.85;24.08;;;;;;;22.16;60.72;101193.09;5093535;28;20547;-89
2021/07/13 07:52:43;;;;;;;28.65;24.17;;;;;;;22.19;60.39;101200.03;5059656;28;20032;-91
2021/07/13 07:55:10;;;;;;;30.13;23.23;;;;;;;22.27;60.07;101213.00;5094254;28;20046;-90
2021/07/13 07:57:36;;;;;;;26.17;22.67;;;;;;;22.28;60.23;101218.22;5059437;28;20111;-90
2021/07/13 08:00:08;;;;;;;26.10;22.50;;;;;;;22.28;60.16;101212.97;5076165;28;20051;-90
2021/07/13 08:02:34;;;;;;;25.15;21.88;;;;;;;22.18;60.32;101217.50;5092608;28;20020;-90
2021/07/13 08:05:00;;;;;;;26.67;22.25;;;;;;;22.23;60.38;101217.44;5076488;28;20335;-90
2021/07/13 08:07:28;;;;;;;25.08;22.33;;;;;;;22.25;59.97;101220.88;5059662;28;20421;-90
2021/07/13 08:09:54;;;;;;;25.98;22.85;;;;;;;22.19;60.10;101223.63;5093135;28;20026;-89
2021/07/13 08:12:19;;;;;;;27.27;22.77;;;;;;;22.13;60.12;101227.25;5093293;28;20032;-92
2021/07/13 08:14:44;;;;;;;26.75;22.80;;;;;;;22.18;59.89;101224.50;5076225;28;20030;-91
2021/07/13 08:17:10;;;;;;;26.48;22.73;;;;;;;22.14;60.23;101222.84;5092892;28;20028;-90
2021/07/13 08:19:38;;;;;;;27.77;23.90;;;;;;;22.11;59.99;101220.31;5060622;28;20028;-89
2021/07/13 08:22:08;;;;;;;25.15;21.88;;;;;;;22.17;59.96;101225.44;5078788;28;20077;-90
2021/07/13 08:24:34;;;;;;;25.67;22.40;;;;;;;22.03;60.53;101224.84;5094843;28;20044;-89
2021/07/13 08:27:00;;;;;;;28.65;23.60;;;;;;;22.10;60.05;101218.56;5094633;28;20062;-89
2021/07/13 08:29:25;;;;;;;29.70;23.60;;;;;;;22.14;60.05;101215.84;5061601;28;20024;-89
2021/07/13 08:31:56;;;;;;;26.67;22.48;;;;;;;22.17;59.78;101213.19;5061896;28;20552;-89
2021/07/13 08:34:22;;;;;;;27.92;22.95;;;;;;;22.09;60.04;101219.50;5062735;28;20048;-91
2021/07/13 08:36:47;;;;;;;24.63;21.42;;;;;;;22.13;59.88;101227.25;5061628;28;20114;-89
2021/07/13 08:39:13;;;;;;;24.95;21.98;;;;;;;22.16;59.94;101228.94;5061264;28;20123;-89
2021/07/13 08:41:39;;;;;;;26.13;23.33;;;;;;;22.08;59.82;101221.25;5094392;28;20039;-92
2021/07/13 08:44:06;;;;;;;27.98;23.77;;;;;;;22.05;59.98;101221.31;5077974;28;20036;-92
2021/07/13 08:46:32;;;;;;;25.90;22.17;;;;;;;22.15;59.55;101228.06;5078809;28;20119;-92
2021/07/13 08:49:03;;;;;;;28.38;23.48;;;;;;;22.22;59.31;101220.97;5095186;28;20059;-91
2021/07/13 08:51:28;;;;;;;30.20;23.27;;;;;;;22.17;59.34;101218.41;5094877;28;20024;-89
2021/07/13 08:53:54;;;;;;;27.85;22.50;;;;;;;22.18;59.25;101220.13;5077783;28;20547;-92
2021/07/13 08:56:20;;;;;;;25.85;22.20;;;;;;;22.16;59.30;101228.94;5094332;28;20107;-89
2021/07/13 08:58:46;;;;;;;28.38;23.05;;;;;;;22.11;59.88;101217.69;5077733;28;20123;-90
2021/07/13 09:01:12;;;;;;;29.05;22.13;;;;;;;22.12;59.49;101222.91;5077590;28;20474;-89
2021/07/13 09:04:01;;;;;;;25.98;21.85;;;;;;;22.14;59.37;101221.09;5094843;28;20110;-89
2021/07/13 09:06:28;;;;;;;27.63;22.05;;;;;;;22.17;59.73;101222.81;5096145;28;20110;-89
2021/07/13 09:08:53;;;;;;;25.25;21.17;;;;;;;22.25;59.35;101231.38;5099515;28;20508;-88
2021/07/13 09:11:21;;;;;;;25.77;22.20;;;;;;;22.26;59.35;101227.00;5098290;28;20028;-93
2021/07/13 09:13:53;;;;;;;27.42;21.48;;;;;;;22.28;59.40;101233.09;5098235;28;20058;-89
2021/07/13 09:16:30;;;;;;;26.05;22.52;;;;;;;22.31;59.46;101230.38;5096166;28;20024;-90
2021/07/13 09:18:58;;;;;;;27.50;22.27;;;;;;;22.26;59.38;101227.88;5096963;28;20020;-89
2021/07/13 09:21:35;;;;;;;29.85;24.27;;;;;;;22.22;59.40;101226.22;5096936;28;20048;-91
2021/07/13 09:24:02;;;;;;;29.55;23.17;;;;;;;22.30;59.17;101226.91;5096280;28;20383;-91
2021/07/13 09:26:54;;;;;;;27.98;23.27;;;;;;;22.26;59.52;101230.50;5096993;28;20020;-92
2021/07/13 09:29:34;;;;;;;28.67;22.63;;;;;;;22.21;59.60;101227.09;5094241;28;20032;-91
2021/07/13 09:32:32;;;;;;;28.33;23.17;;;;;;;22.31;59.52;101235.63;5097086;28;20032;-90
2021/07/13 09:35:05;;;;;;;28.33;22.67;;;;;;;22.34;59.21;101230.28;5080440;28;20027;-92
2021/07/13 09:37:38;;;;;;;30.08;23.17;;;;;;;22.38;59.23;101238.06;5096271;28;20047;-91
2021/07/13 09:40:06;;;;;;;29.52;24.05;;;;;;;22.35;59.28;101239.91;5096038;28;20024;-90
2021/07/13 09:42:34;;;;;;;25.95;21.83;;;;;;;22.41;59.32;101241.50;5095717;28;20027;-90
2021/07/13 09:45:25;;;;;;;27.95;23.17;;;;;;;22.41;59.10;101234.53;5095540;28;20020;-89
2021/07/13 09:47:52;;;;;;;26.25;21.52;;;;;;;22.64;58.38;101228.69;5097391;28;20167;-90
2021/07/13 09:50:44;;;;;;;25.30;21.80;;;;;;;22.68;58.35;101226.88;5095941;28;20028;-89
2021/07/13 09:53:13;;;;;;;26.10;20.98;;;;;;;22.78;57.71;101223.97;5078560;28;20085;-90
2021/07/13 09:55:39;;;;;;;25.55;20.77;;;;;;;22.71;58.00;101225.06;5095907;28;20066;-90
2021/07/13 09:58:14;;;;;;;24.58;20.75;;;;;;;22.67;58.15;101225.13;5095419;28;20046;-90
2021/07/13 10:00:41;;;;;;;23.58;19.50;;;;;;;22.58;58.75;101220.97;5095534;28;20024;-90
2021/07/13 10:03:10;;;;;;;23.67;19.52;;;;;;;22.59;58.63;101223.56;5096085;28;20024;-90
2021/07/13 10:05:38;;;;;;;23.25;18.67;;;;;;;22.66;58.85;101220.81;5095592;28;20024;-90
2021/07/13 10:08:04;;;;;;;26.52;19.25;;;;;;;22.79;58.50;101222.22;5095620;28;20024;-90
2021/07/13 10:10:30;;;;;;;24.67;18.30;;;;;;;22.84;58.30;101225.56;5078243;28;20072;-90
2021/07/13 10:12:56;;;;;;;24.55;18.13;;;;;;;22.87;58.29;101224.66;5096561;28;20024;-91
2021/07/13 10:15:22;;;;;;;22.15;18.20;;;;;;;22.89;58.36;101226.34;5095291;28;20039;-90
2021/07/13 10:17:50;;;;;;;26.42;18.23;;;;;;;22.80;58.40;101231.84;5095824;28;20032;-91
2021/07/13 10:20:16;;;;;;;22.77;17.85;;;;;;;22.84;58.41;101229.97;5098032;28;20118;-91
2021/07/13 10:22:44;;;;;;;21.85;18.17;;;;;;;22.80;58.10;101229.22;5098952;28;20560;-89
2021/07/13 10:25:11;;;;;;;22.85;18.55;;;;;;;22.76;58.54;101238.06;5096871;28;20028;-91
2021/07/13 10:27:42;;;;;;;21.27;17.67;;;;;;;22.79;58.42;101240.59;5078969;28;20028;-90
2021/07/13 10:30:29;;;;;;;23.13;17.27;;;;;;;22.77;58.14;101242.38;5080010;28;20194;-90
2021/07/13 10:32:55;;;;;;;24.15;17.35;;;;;;;22.66;58.52;101232.16;5082085;28;20096;-91
2021/07/13 10:35:23;;;;;;;21.67;17.92;;;;;;;22.54;58.95;101242.97;5078371;28;20028;-90
2021/07/13 10:37:59;;;;;;;19.60;16.60;;;;;;;22.57;58.85;101245.50;5078141;28;20032;-92
2021/07/13 10:40:25;;;;;;;18.10;15.70;;;;;;;22.57;58.49;101242.88;5095767;28;20024;-89
2021/07/13 10:42:53;;;;;;;20.75;16.70;;;;;;;22.61;58.38;101243.69;5094502;28;20607;-91
2021/07/13 10:45:33;;;;;;;22.50;16.50;;;;;;;22.57;58.64;101241.09;5094617;28;20107;-90
2021/07/13 10:48:21;;;;;;;18.05;15.82;;;;;;;22.58;58.66;101247.22;5094759;28;20077;-91
2021/07/13 10:50:53;;;;;;;20.40;16.08;;;;;;;22.64;58.22;101249.69;5094866;28;20024;-91
2021/07/13 10:53:35;;;;;;;22.70;15.35;;;;;;;22.61;58.06;101235.81;5094574;28;20047;-90
2021/07/13 10:56:07;;;;;;;21.33;16.17;;;;;;;22.57;58.73;101248.13;5094273;28;20540;-90
2021/07/13 10:58:41;;;;;;;18.20;15.27;;;;;;;22.53;58.53;101247.31;5094222;28;20089;-90
2021/07/13 11:01:15;;;;;;;18.65;15.40;;;;;;;22.50;58.48;101250.03;5094360;28;20509;-89
2021/07/13 11:03:41;;;;;;;22.30;15.95;;;;;;;22.57;58.62;101248.97;5095431;28;20397;-91
2021/07/13 11:06:17;;;;;;;23.27;15.27;;;;;;;22.68;57.95;101260.97;5094129;28;20031;-89
2021/07/13 11:08:49;;;;;;;18.42;15.30;;;;;;;22.58;58.46;101257.69;5093955;28;20020;-87
2021/07/13 11:11:15;;;;;;;19.80;14.70;;;;;;;22.55;58.38;101256.00;5099061;28;20055;-89
2021/07/13 11:14:03;;;;;;;19.30;14.93;;;;;;;22.57;58.31;101272.59;5097439;28;20028;-90
2021/07/13 11:16:37;;;;;;;20.40;15.13;;;;;;;22.58;58.21;101270.81;5097414;28;20052;-88